sensor_id;sensor_type;location;lat;lon;timestamp;temperature;humidity
42365;DHT22;28498;54.400;18.566;2022-11-15T00:00:57;7.40;99.90
42365;DHT22;28498;54.400;18.566;2022-11-15T00:03:26;7.30;99.90
42365;DHT22;28498;54.400;18.566;2022-11-15T00:05:53;7.40;99.90
42365;DHT22;28498;54.400;18.566;2022-11-15T00:08:20;7.40;99.90
42365;DHT22;28498;54.400;18.566;2022-11-15T00:10:58;7.40;99.90
42365;DHT22;28498;54.400;18.566;2022-11-15T00:15:52;7.40;99.90
42365;DHT22;28498;54.400;18.566;2022-11-15T00:18:19;7.40;99.90
42365;DHT22;28498;54.400;18.566;2022-11-15T00:20:46;5.70;99.90
42365;DHT22;28498;54.400;18.566;2022-11-15T00:23:13;7.30;99.90
42365;DHT22;28498;54.400;18.566;2022-11-15T00:33:05;7.30;99.90
42365;DHT22;28498;54.400;18.566;2022-11-15T00:35:33;7.30;99.90
42365;DHT22;28498;54.400;18.566;2022-11-15T00:38:01;7.30;99.90
42365;DHT22;28498;54.400;18.566;2022-11-15T00:42:57;7.30;99.90
42365;DHT22;28498;54.400;18.566;2022-11-15T00:45:25;7.30;99.90
42365;DHT22;28498;54.400;18.566;2022-11-15T00:47:52;7.30;99.90
42365;DHT22;28498;54.400;18.566;2022-11-15T00:50:19;7.30;99.90
42365;DHT22;28498;54.400;18.566;2022-11-15T00:52:45;7.30;99.90
42365;DHT22;28498;54.400;18.566;2022-11-15T00:55:16;7.30;99.90
42365;DHT22;28498;54.400;18.566;2022-11-15T01:00:11;7.20;99.90
42365;DHT22;28498;54.400;18.566;2022-11-15T01:02:38;7.20;99.90
42365;DHT22;28498;54.400;18.566;2022-11-15T01:05:05;7.10;99.90
42365;DHT22;28498;54.400;18.566;2022-11-15T01:07:33;7.20;99.90
42365;DHT22;28498;54.400;18.566;2022-11-15T01:10:00;7.20;99.90
42365;DHT22;28498;54.400;18.566;2022-11-15T01:12:26;7.20;99.90
42365;DHT22;28498;54.400;18.566;2022-11-15T01:14:53;7.20;99.90
42365;DHT22;28498;54.400;18.566;2022-11-15T01:19:48;7.20;99.90
42365;DHT22;28498;54.400;18.566;2022-11-15T01:22:14;7.20;99.90
42365;DHT22;28498;54.400;18.566;2022-11-15T01:29:36;7.20;99.90
42365;DHT22;28498;54.400;18.566;2022-11-15T01:32:03;7.20;99.90
42365;DHT22;28498;54.400;18.566;2022-11-15T01:36:58;7.20;99.90
42365;DHT22;28498;54.400;18.566;2022-11-15T01:41:53;7.20;99.90
42365;DHT22;28498;54.400;18.566;2022-11-15T01:47:15;7.20;99.90
42365;DHT22;28498;54.400;18.566;2022-11-15T01:49:58;7.20;99.90
42365;DHT22;28498;54.400;18.566;2022-11-15T01:52:29;7.10;99.90
42365;DHT22;28498;54.400;18.566;2022-11-15T01:57:31;7.10;99.90
42365;DHT22;28498;54.400;18.566;2022-11-15T02:00:00;7.10;99.90
42365;DHT22;28498;54.400;18.566;2022-11-15T02:02:27;7.10;99.90
42365;DHT22;28498;54.400;18.566;2022-11-15T02:09:50;7.00;99.90
42365;DHT22;28498;54.400;18.566;2022-11-15T02:12:19;7.10;99.90
42365;DHT22;28498;54.400;18.566;2022-11-15T02:14:50;7.00;99.90
42365;DHT22;28498;54.400;18.566;2022-11-15T02:29:19;7.00;99.90
42365;DHT22;28498;54.400;18.566;2022-11-15T02:34:48;7.00;99.90
42365;DHT22;28498;54.400;18.566;2022-11-15T02:38:15;7.00;99.90
42365;DHT22;28498;54.400;18.566;2022-11-15T02:43:17;6.90;99.90
42365;DHT22;28498;54.400;18.566;2022-11-15T02:46:19;6.90;99.90
42365;DHT22;28498;54.400;18.566;2022-11-15T02:48:47;6.90;99.90
42365;DHT22;28498;54.400;18.566;2022-11-15T02:51:14;6.90;99.90
42365;DHT22;28498;54.400;18.566;2022-11-15T02:56:11;6.80;99.90
42365;DHT22;28498;54.400;18.566;2022-11-15T02:58:44;7.00;99.90
42365;DHT22;28498;54.400;18.566;2022-11-15T03:01:30;7.00;99.90
42365;DHT22;28498;54.400;18.566;2022-11-15T03:04:27;6.90;99.90
42365;DHT22;28498;54.400;18.566;2022-11-15T03:07:11;7.00;99.90
42365;DHT22;28498;54.400;18.566;2022-11-15T03:09:50;7.00;99.90
42365;DHT22;28498;54.400;18.566;2022-11-15T03:12:41;6.90;99.90
42365;DHT22;28498;54.400;18.566;2022-11-15T03:15:23;6.90;99.90
42365;DHT22;28498;54.400;18.566;2022-11-15T03:17:57;6.90;99.90
42365;DHT22;28498;54.400;18.566;2022-11-15T03:20:26;6.90;99.90
42365;DHT22;28498;54.400;18.566;2022-11-15T03:22:57;6.80;99.90
42365;DHT22;28498;54.400;18.566;2022-11-15T03:25:26;7.00;99.90
42365;DHT22;28498;54.400;18.566;2022-11-15T03:27:56;6.80;99.90
42365;DHT22;28498;54.400;18.566;2022-11-15T03:30:23;6.90;99.90
42365;DHT22;28498;54.400;18.566;2022-11-15T03:32:53;6.90;99.90
42365;DHT22;28498;54.400;18.566;2022-11-15T03:35:25;6.80;99.90
42365;DHT22;28498;54.400;18.566;2022-11-15T03:40:38;6.80;99.90
42365;DHT22;28498;54.400;18.566;2022-11-15T03:46:07;5.20;99.90
42365;DHT22;28498;54.400;18.566;2022-11-15T03:48:39;6.70;99.90
42365;DHT22;28498;54.400;18.566;2022-11-15T03:51:06;6.70;99.90
42365;DHT22;28498;54.400;18.566;2022-11-15T03:53:33;6.80;99.90
42365;DHT22;28498;54.400;18.566;2022-11-15T03:56:00;6.70;99.90
42365;DHT22;28498;54.400;18.566;2022-11-15T03:58:27;6.80;99.90
42365;DHT22;28498;54.400;18.566;2022-11-15T04:03:21;6.50;99.90
42365;DHT22;28498;54.400;18.566;2022-11-15T04:05:48;6.40;99.90
42365;DHT22;28498;54.400;18.566;2022-11-15T04:08:15;6.50;99.90
42365;DHT22;28498;54.400;18.566;2022-11-15T04:15:36;6.30;99.90
42365;DHT22;28498;54.400;18.566;2022-11-15T04:18:03;6.40;99.90
42365;DHT22;28498;54.400;18.566;2022-11-15T04:20:31;6.50;99.90
42365;DHT22;28498;54.400;18.566;2022-11-15T04:23:21;6.50;99.90
42365;DHT22;28498;54.400;18.566;2022-11-15T04:26:11;6.50;99.90
42365;DHT22;28498;54.400;18.566;2022-11-15T04:28:38;6.50;99.90
42365;DHT22;28498;54.400;18.566;2022-11-15T04:31:24;6.40;99.90
42365;DHT22;28498;54.400;18.566;2022-11-15T04:33:51;6.40;99.90
42365;DHT22;28498;54.400;18.566;2022-11-15T04:39:04;6.30;99.90
42365;DHT22;28498;54.400;18.566;2022-11-15T04:41:31;6.40;99.90
42365;DHT22;28498;54.400;18.566;2022-11-15T04:43:58;6.50;99.90
42365;DHT22;28498;54.400;18.566;2022-11-15T04:46:25;6.40;99.90
42365;DHT22;28498;54.400;18.566;2022-11-15T04:48:53;6.20;99.90
42365;DHT22;28498;54.400;18.566;2022-11-15T04:51:25;6.20;99.90
42365;DHT22;28498;54.400;18.566;2022-11-15T04:53:52;6.20;99.90
42365;DHT22;28498;54.400;18.566;2022-11-15T04:56:19;6.20;99.90
42365;DHT22;28498;54.400;18.566;2022-11-15T04:58:49;6.20;99.90
42365;DHT22;28498;54.400;18.566;2022-11-15T05:01:16;6.20;99.90
42365;DHT22;28498;54.400;18.566;2022-11-15T05:03:44;6.30;99.90
42365;DHT22;28498;54.400;18.566;2022-11-15T05:06:30;6.30;99.90
42365;DHT22;28498;54.400;18.566;2022-11-15T05:08:57;6.30;99.90
42365;DHT22;28498;54.400;18.566;2022-11-15T05:11:24;6.30;99.90
42365;DHT22;28498;54.400;18.566;2022-11-15T05:18:46;6.30;99.90
42365;DHT22;28498;54.400;18.566;2022-11-15T05:21:14;6.30;99.90
42365;DHT22;28498;54.400;18.566;2022-11-15T05:23:41;6.30;99.90
42365;DHT22;28498;54.400;18.566;2022-11-15T05:26:09;6.30;99.90
42365;DHT22;28498;54.400;18.566;2022-11-15T05:28:37;6.20;99.90
42365;DHT22;28498;54.400;18.566;2022-11-15T05:31:15;6.30;99.90
42365;DHT22;28498;54.400;18.566;2022-11-15T05:33:43;6.20;99.90
42365;DHT22;28498;54.400;18.566;2022-11-15T05:36:21;6.20;99.90
42365;DHT22;28498;54.400;18.566;2022-11-15T05:38:51;6.30;99.90
42365;DHT22;28498;54.400;18.566;2022-11-15T05:41:22;6.20;99.90
42365;DHT22;28498;54.400;18.566;2022-11-15T05:46:19;6.30;99.90
42365;DHT22;28498;54.400;18.566;2022-11-15T05:48:49;6.40;99.90
42365;DHT22;28498;54.400;18.566;2022-11-15T05:51:17;6.30;99.90
42365;DHT22;28498;54.400;18.566;2022-11-15T05:56:14;6.30;99.90
42365;DHT22;28498;54.400;18.566;2022-11-15T05:58:41;6.30;99.90
42365;DHT22;28498;54.400;18.566;2022-11-15T06:01:09;6.30;99.90
42365;DHT22;28498;54.400;18.566;2022-11-15T06:03:36;6.30;99.90
42365;DHT22;28498;54.400;18.566;2022-11-15T06:06:03;6.30;99.90
42365;DHT22;28498;54.400;18.566;2022-11-15T06:08:30;6.20;99.90
42365;DHT22;28498;54.400;18.566;2022-11-15T06:11:02;6.30;99.90
42365;DHT22;28498;54.400;18.566;2022-11-15T06:13:29;6.30;99.90
42365;DHT22;28498;54.400;18.566;2022-11-15T06:15:56;6.30;99.90
42365;DHT22;28498;54.400;18.566;2022-11-15T06:18:23;6.30;99.90
42365;DHT22;28498;54.400;18.566;2022-11-15T06:20:50;6.30;99.90
42365;DHT22;28498;54.400;18.566;2022-11-15T06:23:17;6.30;99.90
42365;DHT22;28498;54.400;18.566;2022-11-15T06:25:44;6.30;99.90
42365;DHT22;28498;54.400;18.566;2022-11-15T06:28:11;6.30;99.90
42365;DHT22;28498;54.400;18.566;2022-11-15T06:33:05;6.30;99.90
42365;DHT22;28498;54.400;18.566;2022-11-15T06:35:34;6.30;99.90
42365;DHT22;28498;54.400;18.566;2022-11-15T06:38:06;6.20;99.90
42365;DHT22;28498;54.400;18.566;2022-11-15T06:40:37;6.20;99.90
42365;DHT22;28498;54.400;18.566;2022-11-15T06:43:05;6.20;99.90
42365;DHT22;28498;54.400;18.566;2022-11-15T06:45:32;6.30;99.90
42365;DHT22;28498;54.400;18.566;2022-11-15T06:47:59;6.20;99.90
42365;DHT22;28498;54.400;18.566;2022-11-15T06:50:26;6.20;99.90
42365;DHT22;28498;54.400;18.566;2022-11-15T06:52:53;6.30;99.90
42365;DHT22;28498;54.400;18.566;2022-11-15T06:57:49;6.30;99.90
42365;DHT22;28498;54.400;18.566;2022-11-15T07:00:18;6.20;99.90
42365;DHT22;28498;54.400;18.566;2022-11-15T07:02:46;6.10;99.90
42365;DHT22;28498;54.400;18.566;2022-11-15T07:05:14;6.10;99.90
42365;DHT22;28498;54.400;18.566;2022-11-15T07:07:41;6.10;99.90
42365;DHT22;28498;54.400;18.566;2022-11-15T07:10:09;6.10;99.90
42365;DHT22;28498;54.400;18.566;2022-11-15T07:15:03;6.20;99.90
42365;DHT22;28498;54.400;18.566;2022-11-15T07:19:57;6.30;99.90
42365;DHT22;28498;54.400;18.566;2022-11-15T07:24:52;6.40;99.90
42365;DHT22;28498;54.400;18.566;2022-11-15T07:27:19;6.40;99.90
42365;DHT22;28498;54.400;18.566;2022-11-15T07:29:46;6.50;99.90
42365;DHT22;28498;54.400;18.566;2022-11-15T07:32:12;6.50;99.90
42365;DHT22;28498;54.400;18.566;2022-11-15T07:34:39;6.40;99.90
42365;DHT22;28498;54.400;18.566;2022-11-15T07:37:06;6.50;99.90
42365;DHT22;28498;54.400;18.566;2022-11-15T07:39:33;6.30;99.90
42365;DHT22;28498;54.400;18.566;2022-11-15T07:42:00;6.30;99.90
42365;DHT22;28498;54.400;18.566;2022-11-15T07:44:59;6.40;99.90
42365;DHT22;28498;54.400;18.566;2022-11-15T07:47:28;6.50;99.90
42365;DHT22;28498;54.400;18.566;2022-11-15T07:52:22;6.60;99.90
42365;DHT22;28498;54.400;18.566;2022-11-15T07:54:49;6.70;99.90
42365;DHT22;28498;54.400;18.566;2022-11-15T07:59:44;6.80;99.90
42365;DHT22;28498;54.400;18.566;2022-11-15T08:02:10;7.00;99.90
42365;DHT22;28498;54.400;18.566;2022-11-15T08:04:38;7.10;99.90
42365;DHT22;28498;54.400;18.566;2022-11-15T08:11:59;7.20;99.90
42365;DHT22;28498;54.400;18.566;2022-11-15T08:16:57;7.20;99.90
42365;DHT22;28498;54.400;18.566;2022-11-15T08:19:24;7.20;99.90
42365;DHT22;28498;54.400;18.566;2022-11-15T08:21:50;7.10;99.90
42365;DHT22;28498;54.400;18.566;2022-11-15T08:24:17;7.10;99.90
42365;DHT22;28498;54.400;18.566;2022-11-15T08:26:44;7.10;99.90
42365;DHT22;28498;54.400;18.566;2022-11-15T08:34:06;6.70;99.90
42365;DHT22;28498;54.400;18.566;2022-11-15T08:36:33;6.80;99.90
42365;DHT22;28498;54.400;18.566;2022-11-15T08:39:11;6.80;99.90
42365;DHT22;28498;54.400;18.566;2022-11-15T08:41:41;6.80;99.90
42365;DHT22;28498;54.400;18.566;2022-11-15T08:44:08;6.70;99.90
42365;DHT22;28498;54.400;18.566;2022-11-15T08:49:02;6.90;99.90
42365;DHT22;28498;54.400;18.566;2022-11-15T08:51:29;7.00;99.90
42365;DHT22;28498;54.400;18.566;2022-11-15T08:53:56;6.90;99.90
42365;DHT22;28498;54.400;18.566;2022-11-15T08:56:23;6.80;99.90
42365;DHT22;28498;54.400;18.566;2022-11-15T08:58:50;6.70;99.90
42365;DHT22;28498;54.400;18.566;2022-11-15T09:01:19;6.60;99.90
42365;DHT22;28498;54.400;18.566;2022-11-15T09:03:46;6.40;99.90
42365;DHT22;28498;54.400;18.566;2022-11-15T09:06:13;6.40;99.90
42365;DHT22;28498;54.400;18.566;2022-11-15T09:13:46;6.70;99.90
42365;DHT22;28498;54.400;18.566;2022-11-15T09:16:13;6.70;99.90
42365;DHT22;28498;54.400;18.566;2022-11-15T09:18:41;6.60;99.90
42365;DHT22;28498;54.400;18.566;2022-11-15T09:21:09;6.60;99.90
42365;DHT22;28498;54.400;18.566;2022-11-15T09:23:36;6.60;99.90
42365;DHT22;28498;54.400;18.566;2022-11-15T09:26:04;6.60;99.90
42365;DHT22;28498;54.400;18.566;2022-11-15T09:28:32;6.50;99.90
42365;DHT22;28498;54.400;18.566;2022-11-15T09:31:02;6.50;99.90
42365;DHT22;28498;54.400;18.566;2022-11-15T09:33:29;6.50;99.90
42365;DHT22;28498;54.400;18.566;2022-11-15T09:36:01;6.60;99.90
42365;DHT22;28498;54.400;18.566;2022-11-15T09:38:28;6.60;99.90
42365;DHT22;28498;54.400;18.566;2022-11-15T09:46:37;6.50;99.90
42365;DHT22;28498;54.400;18.566;2022-11-15T09:49:09;6.60;99.90
42365;DHT22;28498;54.400;18.566;2022-11-15T09:51:40;6.70;99.90
42365;DHT22;28498;54.400;18.566;2022-11-15T09:54:34;6.70;99.90
42365;DHT22;28498;54.400;18.566;2022-11-15T10:03:25;6.80;99.90
42365;DHT22;28498;54.400;18.566;2022-11-15T10:05:57;6.80;99.90
42365;DHT22;28498;54.400;18.566;2022-11-15T10:08:45;6.90;99.90
42365;DHT22;28498;54.400;18.566;2022-11-15T10:11:28;6.90;99.90
42365;DHT22;28498;54.400;18.566;2022-11-15T10:14:14;6.90;99.90
42365;DHT22;28498;54.400;18.566;2022-11-15T10:19:34;7.00;99.90
42365;DHT22;28498;54.400;18.566;2022-11-15T10:27:35;7.00;99.90
42365;DHT22;28498;54.400;18.566;2022-11-15T10:30:05;6.90;99.90
42365;DHT22;28498;54.400;18.566;2022-11-15T10:35:23;7.10;99.90
42365;DHT22;28498;54.400;18.566;2022-11-15T10:37:51;7.00;99.90
42365;DHT22;28498;54.400;18.566;2022-11-15T10:40:21;7.00;99.90
42365;DHT22;28498;54.400;18.566;2022-11-15T10:43:04;7.10;99.90
42365;DHT22;28498;54.400;18.566;2022-11-15T10:45:33;7.10;99.90
42365;DHT22;28498;54.400;18.566;2022-11-15T10:50:49;7.10;99.90
42365;DHT22;28498;54.400;18.566;2022-11-15T10:55:47;7.10;99.90
42365;DHT22;28498;54.400;18.566;2022-11-15T10:58:41;7.10;99.90
42365;DHT22;28498;54.400;18.566;2022-11-15T11:01:21;7.20;99.90
42365;DHT22;28498;54.400;18.566;2022-11-15T11:04:01;7.10;99.90
42365;DHT22;28498;54.400;18.566;2022-11-15T11:06:28;7.00;99.90
42365;DHT22;28498;54.400;18.566;2022-11-15T11:09:31;7.00;99.90
42365;DHT22;28498;54.400;18.566;2022-11-15T11:11:59;7.10;99.90
42365;DHT22;28498;54.400;18.566;2022-11-15T11:14:32;7.00;99.90
42365;DHT22;28498;54.400;18.566;2022-11-15T11:28:05;7.10;99.90
42365;DHT22;28498;54.400;18.566;2022-11-15T11:31:13;7.10;99.90
42365;DHT22;28498;54.400;18.566;2022-11-15T11:34:14;7.10;99.90
42365;DHT22;28498;54.400;18.566;2022-11-15T11:36:52;7.10;99.90
42365;DHT22;28498;54.400;18.566;2022-11-15T11:39:59;7.20;99.90
42365;DHT22;28498;54.400;18.566;2022-11-15T11:48:13;7.20;99.90
42365;DHT22;28498;54.400;18.566;2022-11-15T11:50:42;7.10;99.90
42365;DHT22;28498;54.400;18.566;2022-11-15T11:53:14;7.10;99.90
42365;DHT22;28498;54.400;18.566;2022-11-15T11:55:51;7.10;99.90
42365;DHT22;28498;54.400;18.566;2022-11-15T11:58:33;7.10;99.90
42365;DHT22;28498;54.400;18.566;2022-11-15T12:01:41;7.20;99.90
42365;DHT22;28498;54.400;18.566;2022-11-15T12:04:24;7.10;99.90
42365;DHT22;28498;54.400;18.566;2022-11-15T12:17:38;7.20;99.90
42365;DHT22;28498;54.400;18.566;2022-11-15T12:20:16;7.30;99.90
42365;DHT22;28498;54.400;18.566;2022-11-15T12:22:54;7.20;99.90
42365;DHT22;28498;54.400;18.566;2022-11-15T12:30:22;7.10;99.90
42365;DHT22;28498;54.400;18.566;2022-11-15T12:32:55;7.10;99.90
42365;DHT22;28498;54.400;18.566;2022-11-15T12:35:39;7.10;99.90
42365;DHT22;28498;54.400;18.566;2022-11-15T12:38:11;7.10;99.90
42365;DHT22;28498;54.400;18.566;2022-11-15T12:41:12;7.10;99.90
42365;DHT22;28498;54.400;18.566;2022-11-15T12:43:41;7.10;99.90
42365;DHT22;28498;54.400;18.566;2022-11-15T12:49:07;7.20;99.90
42365;DHT22;28498;54.400;18.566;2022-11-15T12:59:54;7.10;99.90
42365;DHT22;28498;54.400;18.566;2022-11-15T13:12:58;7.10;99.90
42365;DHT22;28498;54.400;18.566;2022-11-15T13:16:00;7.10;99.90
42365;DHT22;28498;54.400;18.566;2022-11-15T13:18:32;7.10;99.90
42365;DHT22;28498;54.400;18.566;2022-11-15T13:21:01;7.10;99.90
42365;DHT22;28498;54.400;18.566;2022-11-15T13:23:28;7.10;99.90
42365;DHT22;28498;54.400;18.566;2022-11-15T13:33:49;6.90;99.90
42365;DHT22;28498;54.400;18.566;2022-11-15T13:36:22;6.90;99.90
42365;DHT22;28498;54.400;18.566;2022-11-15T13:38:55;6.80;99.90
42365;DHT22;28498;54.400;18.566;2022-11-15T13:41:29;6.80;99.90
42365;DHT22;28498;54.400;18.566;2022-11-15T13:43:57;6.80;99.90
42365;DHT22;28498;54.400;18.566;2022-11-15T13:46:27;6.70;99.90
42365;DHT22;28498;54.400;18.566;2022-11-15T13:49:03;8.00;99.90
42365;DHT22;28498;54.400;18.566;2022-11-15T13:51:43;6.70;99.90
42365;DHT22;28498;54.400;18.566;2022-11-15T13:56:44;6.60;99.90
42365;DHT22;28498;54.400;18.566;2022-11-15T14:01:51;6.60;99.90
42365;DHT22;28498;54.400;18.566;2022-11-15T14:04:23;6.60;99.90
42365;DHT22;28498;54.400;18.566;2022-11-15T14:06:57;6.50;99.90
42365;DHT22;28498;54.400;18.566;2022-11-15T14:09:33;6.50;99.90
42365;DHT22;28498;54.400;18.566;2022-11-15T14:12:02;6.50;99.90
42365;DHT22;28498;54.400;18.566;2022-11-15T14:16:59;6.40;99.90
42365;DHT22;28498;54.400;18.566;2022-11-15T14:24:41;6.30;99.90
42365;DHT22;28498;54.400;18.566;2022-11-15T14:27:35;6.30;99.90
42365;DHT22;28498;54.400;18.566;2022-11-15T14:30:03;6.30;99.90
42365;DHT22;28498;54.400;18.566;2022-11-15T14:32:44;6.20;99.90
42365;DHT22;28498;54.400;18.566;2022-11-15T14:35:20;6.20;99.90
42365;DHT22;28498;54.400;18.566;2022-11-15T14:37:47;6.20;99.90
42365;DHT22;28498;54.400;18.566;2022-11-15T14:40:17;6.90;99.90
42365;DHT22;28498;54.400;18.566;2022-11-15T14:42:46;6.20;99.90
42365;DHT22;28498;54.400;18.566;2022-11-15T14:45:19;6.20;99.90
42365;DHT22;28498;54.400;18.566;2022-11-15T14:47:47;6.20;99.90
42365;DHT22;28498;54.400;18.566;2022-11-15T14:50:19;6.20;99.90
42365;DHT22;28498;54.400;18.566;2022-11-15T14:52:47;6.20;99.90
42365;DHT22;28498;54.400;18.566;2022-11-15T14:55:29;6.20;99.90
42365;DHT22;28498;54.400;18.566;2022-11-15T14:57:58;6.20;99.90
42365;DHT22;28498;54.400;18.566;2022-11-15T15:00:25;6.20;99.90
42365;DHT22;28498;54.400;18.566;2022-11-15T15:03:01;6.20;99.90
42365;DHT22;28498;54.400;18.566;2022-11-15T15:05:51;6.20;99.90
42365;DHT22;28498;54.400;18.566;2022-11-15T15:08:17;6.20;99.90
42365;DHT22;28498;54.400;18.566;2022-11-15T15:10:45;6.10;99.90
42365;DHT22;28498;54.400;18.566;2022-11-15T15:13:17;6.10;99.90
42365;DHT22;28498;54.400;18.566;2022-11-15T15:18:12;6.20;99.90
42365;DHT22;28498;54.400;18.566;2022-11-15T15:20:41;6.10;99.90
42365;DHT22;28498;54.400;18.566;2022-11-15T15:23:19;6.00;99.90
42365;DHT22;28498;54.400;18.566;2022-11-15T15:25:47;6.00;99.90
42365;DHT22;28498;54.400;18.566;2022-11-15T15:28:15;6.00;99.90
42365;DHT22;28498;54.400;18.566;2022-11-15T15:30:43;6.00;99.90
42365;DHT22;28498;54.400;18.566;2022-11-15T15:33:10;6.00;99.90
42365;DHT22;28498;54.400;18.566;2022-11-15T15:35:37;5.90;99.90
42365;DHT22;28498;54.400;18.566;2022-11-15T15:40:32;5.90;99.90
42365;DHT22;28498;54.400;18.566;2022-11-15T15:43:00;5.90;99.90
42365;DHT22;28498;54.400;18.566;2022-11-15T15:47:55;5.90;99.90
42365;DHT22;28498;54.400;18.566;2022-11-15T15:50:32;6.20;99.90
42365;DHT22;28498;54.400;18.566;2022-11-15T15:53:01;6.20;99.90
42365;DHT22;28498;54.400;18.566;2022-11-15T15:55:29;6.20;99.90
42365;DHT22;28498;54.400;18.566;2022-11-15T15:57:56;6.10;99.90
42365;DHT22;28498;54.400;18.566;2022-11-15T16:00:24;6.20;99.90
42365;DHT22;28498;54.400;18.566;2022-11-15T16:02:52;6.40;99.90
42365;DHT22;28498;54.400;18.566;2022-11-15T16:05:20;6.30;99.90
42365;DHT22;28498;54.400;18.566;2022-11-15T16:07:47;6.20;99.90
42365;DHT22;28498;54.400;18.566;2022-11-15T16:10:19;6.10;99.90
42365;DHT22;28498;54.400;18.566;2022-11-15T16:12:47;6.00;99.90
42365;DHT22;28498;54.400;18.566;2022-11-15T16:17:47;5.90;99.90
42365;DHT22;28498;54.400;18.566;2022-11-15T16:25:15;6.10;99.90
42365;DHT22;28498;54.400;18.566;2022-11-15T16:27:42;6.10;99.90
42365;DHT22;28498;54.400;18.566;2022-11-15T16:30:16;6.00;99.90
42365;DHT22;28498;54.400;18.566;2022-11-15T16:32:43;6.00;99.90
42365;DHT22;28498;54.400;18.566;2022-11-15T16:35:14;6.00;99.90
42365;DHT22;28498;54.400;18.566;2022-11-15T16:37:42;6.00;99.90
42365;DHT22;28498;54.400;18.566;2022-11-15T16:40:40;5.90;99.90
42365;DHT22;28498;54.400;18.566;2022-11-15T16:43:07;5.90;99.90
42365;DHT22;28498;54.400;18.566;2022-11-15T16:45:35;5.90;99.90
42365;DHT22;28498;54.400;18.566;2022-11-15T16:48:02;5.90;99.90
42365;DHT22;28498;54.400;18.566;2022-11-15T16:50:31;5.90;99.90
42365;DHT22;28498;54.400;18.566;2022-11-15T16:53:00;5.90;99.90
42365;DHT22;28498;54.400;18.566;2022-11-15T16:55:28;5.90;99.90
42365;DHT22;28498;54.400;18.566;2022-11-15T16:57:56;5.90;99.90
42365;DHT22;28498;54.400;18.566;2022-11-15T17:00:27;5.90;99.90
42365;DHT22;28498;54.400;18.566;2022-11-15T17:02:54;5.90;99.90
42365;DHT22;28498;54.400;18.566;2022-11-15T17:05:23;5.90;99.90
42365;DHT22;28498;54.400;18.566;2022-11-15T17:07:51;5.90;99.90
42365;DHT22;28498;54.400;18.566;2022-11-15T17:10:25;5.90;99.90
42365;DHT22;28498;54.400;18.566;2022-11-15T17:12:53;5.90;99.90
42365;DHT22;28498;54.400;18.566;2022-11-15T17:17:52;5.90;99.90
42365;DHT22;28498;54.400;18.566;2022-11-15T17:20:21;6.00;99.90
42365;DHT22;28498;54.400;18.566;2022-11-15T17:22:48;5.90;99.90
42365;DHT22;28498;54.400;18.566;2022-11-15T17:27:43;6.00;99.90
42365;DHT22;28498;54.400;18.566;2022-11-15T17:30:12;6.00;99.90
42365;DHT22;28498;54.400;18.566;2022-11-15T17:32:41;6.00;99.90
42365;DHT22;28498;54.400;18.566;2022-11-15T17:47:40;5.90;99.90
42365;DHT22;28498;54.400;18.566;2022-11-15T17:50:08;5.90;99.90
42365;DHT22;28498;54.400;18.566;2022-11-15T17:52:35;6.00;99.90
42365;DHT22;28498;54.400;18.566;2022-11-15T18:01:24;6.00;99.90
42365;DHT22;28498;54.400;18.566;2022-11-15T18:03:52;6.00;99.90
42365;DHT22;28498;54.400;18.566;2022-11-15T18:12:34;6.10;99.90
42365;DHT22;28498;54.400;18.566;2022-11-15T18:15:02;6.10;99.90
42365;DHT22;28498;54.400;18.566;2022-11-15T18:22:24;6.10;99.90
42365;DHT22;28498;54.400;18.566;2022-11-15T18:27:18;6.20;99.90
42365;DHT22;28498;54.400;18.566;2022-11-15T18:29:45;6.10;99.90
42365;DHT22;28498;54.400;18.566;2022-11-15T18:34:43;6.10;99.90
42365;DHT22;28498;54.400;18.566;2022-11-15T18:37:10;6.20;99.90
42365;DHT22;28498;54.400;18.566;2022-11-15T18:39:37;6.10;99.90
42365;DHT22;28498;54.400;18.566;2022-11-15T18:42:04;6.10;99.90
42365;DHT22;28498;54.400;18.566;2022-11-15T18:44:31;6.20;99.90
42365;DHT22;28498;54.400;18.566;2022-11-15T19:03:01;6.10;99.90
42365;DHT22;28498;54.400;18.566;2022-11-15T19:05:28;6.10;99.90
42365;DHT22;28498;54.400;18.566;2022-11-15T19:10:22;6.20;99.90
42365;DHT22;28498;54.400;18.566;2022-11-15T19:20:11;6.20;99.90
42365;DHT22;28498;54.400;18.566;2022-11-15T19:22:38;6.10;99.90
42365;DHT22;28498;54.400;18.566;2022-11-15T19:25:05;6.10;99.90
42365;DHT22;28498;54.400;18.566;2022-11-15T19:27:33;6.10;99.90
42365;DHT22;28498;54.400;18.566;2022-11-15T19:30:04;6.10;99.90
42365;DHT22;28498;54.400;18.566;2022-11-15T19:32:31;6.10;99.90
42365;DHT22;28498;54.400;18.566;2022-11-15T19:34:58;6.10;99.90
42365;DHT22;28498;54.400;18.566;2022-11-15T19:37:25;6.10;99.90
42365;DHT22;28498;54.400;18.566;2022-11-15T19:42:19;6.10;99.90
42365;DHT22;28498;54.400;18.566;2022-11-15T19:47:13;6.20;99.90
42365;DHT22;28498;54.400;18.566;2022-11-15T19:49:40;6.20;99.90
42365;DHT22;28498;54.400;18.566;2022-11-15T19:54:34;6.20;99.90
42365;DHT22;28498;54.400;18.566;2022-11-15T19:57:01;6.10;99.90
42365;DHT22;28498;54.400;18.566;2022-11-15T20:01:55;6.10;99.90
42365;DHT22;28498;54.400;18.566;2022-11-15T20:06:49;6.10;99.90
42365;DHT22;28498;54.400;18.566;2022-11-15T20:09:16;6.20;99.90
42365;DHT22;28498;54.400;18.566;2022-11-15T20:14:11;6.20;99.90
42365;DHT22;28498;54.400;18.566;2022-11-15T20:16:39;6.30;99.90
42365;DHT22;28498;54.400;18.566;2022-11-15T20:19:06;6.30;99.90
42365;DHT22;28498;54.400;18.566;2022-11-15T20:21:34;6.30;99.90
42365;DHT22;28498;54.400;18.566;2022-11-15T20:24:01;6.30;99.90
42365;DHT22;28498;54.400;18.566;2022-11-15T20:35:12;6.30;99.90
42365;DHT22;28498;54.400;18.566;2022-11-15T20:37:39;6.30;99.90
42365;DHT22;28498;54.400;18.566;2022-11-15T20:40:06;6.30;99.90
42365;DHT22;28498;54.400;18.566;2022-11-15T20:42:33;6.30;99.90
42365;DHT22;28498;54.400;18.566;2022-11-15T20:47:29;6.40;99.90
42365;DHT22;28498;54.400;18.566;2022-11-15T20:52:44;6.30;99.90
42365;DHT22;28498;54.400;18.566;2022-11-15T20:55:11;6.40;99.90
42365;DHT22;28498;54.400;18.566;2022-11-15T20:57:37;6.40;99.90
42365;DHT22;28498;54.400;18.566;2022-11-15T21:00:05;6.40;99.90
42365;DHT22;28498;54.400;18.566;2022-11-15T21:02:32;6.40;99.90
42365;DHT22;28498;54.400;18.566;2022-11-15T21:07:26;6.40;99.90
42365;DHT22;28498;54.400;18.566;2022-11-15T21:09:53;6.30;99.90
42365;DHT22;28498;54.400;18.566;2022-11-15T21:12:39;6.40;99.90
42365;DHT22;28498;54.400;18.566;2022-11-15T21:15:06;6.40;99.90
42365;DHT22;28498;54.400;18.566;2022-11-15T21:17:34;6.40;99.90
42365;DHT22;28498;54.400;18.566;2022-11-15T21:20:01;6.50;99.90
42365;DHT22;28498;54.400;18.566;2022-11-15T21:22:28;6.30;99.90
42365;DHT22;28498;54.400;18.566;2022-11-15T21:24:55;6.30;99.90
42365;DHT22;28498;54.400;18.566;2022-11-15T21:27:25;6.30;99.90